Hansa Limburg — A8IH6 — position and weather

sailwx.info

Track history (hours):
 
Tides and Currents Weather Stations Pressure Air Temp Water Temp Dewpoint Dewpoint Depression Visibility Wind Speed Wind Dir Waves Ship Positions

Hansa Limburg

Last reported at 2014-Dec-19 08:33 UTC. Time now 2014-Dec-20 07:20 UTC.
Position N 36°38' E 014°38'.

Length 175.5 m; beam 27.4 m; draft 10.9 m.

Type: Ship (hazmat cat C). MMSI: 636090980.

Date/timePositionNaut miles runAvg speedWind from/ knotsBaromVisibWave heightAir tempDewpointWater temp
2014-Dec-19 08:33N 36°38' E 014°38'1616.3
2014-Dec-19 07:33N 36°44' E 014°19'1615.8
2014-Dec-19 06:33N 36°50' E 014°01'1615.7
2014-Dec-19 05:33N 36°57' E 013°43'24016.0
2014-Dec-18 14:33N 38°60' E 009°22'1515.4
2014-Dec-18 13:33N 39°09' E 009°06'4 4.1
2014-Dec-18 12:32N 39°13' E 009°04'0 0.0
2014-Dec-18 11:34N 39°13' E 009°04'0 0.0
2014-Dec-18 10:33N 39°13' E 009°04'0 0.0
2014-Dec-18 09:31N 39°13' E 009°04'0 0.0
2014-Dec-18 08:33N 39°13' E 009°04'0 0.0
2014-Dec-18 07:33N 39°13' E 009°04'0 0.0
2014-Dec-18 06:33N 39°13' E 009°04'0 0.0
2014-Dec-18 05:33N 39°13' E 009°04'0 0.0
2014-Dec-18 04:33N 39°13' E 009°04'0 0.0
2014-Dec-18 03:33N 39°13' E 009°04'0 0.0
2014-Dec-18 02:33N 39°13' E 009°04'0 0.0
2014-Dec-18 01:33N 39°13' E 009°04'0 0.0
2014-Dec-18 00:34N 39°13' E 009°04'0 0.0
2014-Dec-17 23:33N 39°13' E 009°04'0 0.0
2014-Dec-17 22:33N 39°13' E 009°04'0 0.0
2014-Dec-17 21:33N 39°13' E 009°04'0 0.0
2014-Dec-17 20:27N 39°13' E 009°04'0 0.0
2014-Dec-17 19:33N 39°13' E 009°04'0 0.0
2014-Dec-17 18:33N 39°13' E 009°04'1 0.5
2014-Dec-17 17:33N 39°13' E 009°04'7 7.2
2014-Dec-17 16:33N 39°07' E 009°09'1515.0
2014-Dec-17 15:32N 38°59' E 009°26'1515.2
2014-Dec-17 14:31N 39°02' E 009°45'22016.9
2014-Dec-17 01:29N 40°26' E 014°10'1516.2
2014-Dec-17 00:33N 40°32' E 014°29'1 0.0
2014-Dec-15 22:17N 40°33' E 014°28'6 8.4
2014-Dec-15 21:33N 40°32' E 014°21'8 7.9
2014-Dec-15 20:34N 40°31' E 014°10'9 7.8
2014-Dec-15 19:28N 40°39' E 014°12'8 8.5
2014-Dec-15 18:33N 40°47' E 014°17'4 3.4
2014-Dec-15 17:24N 40°50' E 014°17'0 0.0
2014-Dec-15 16:28N 40°50' E 014°17'0 0.0
2014-Dec-15 15:20N 40°50' E 014°17'0 0.0
2014-Dec-15 13:28N 40°50' E 014°17'0 0.0
2014-Dec-15 12:18N 40°50' E 014°17'0 0.0
2014-Dec-15 11:15N 40°50' E 014°17'0 0.0
2014-Dec-15 10:16N 40°50' E 014°17'0 0.0
2014-Dec-15 09:22N 40°50' E 014°17'0 0.0
2014-Dec-15 08:10N 40°50' E 014°17'0 0.0
2014-Dec-15 07:32N 40°50' E 014°17'0 0.0
2014-Dec-15 06:30N 40°50' E 014°17'26 3.7
2014-Dec-14 23:26N 40°40' E 013°45'1 1.4
2014-Dec-14 22:33N 40°39' E 013°46'1 1.4
2014-Dec-14 21:34N 40°38' E 013°47'1 1.2
2014-Dec-14 20:29N 40°37' E 013°48'1 1.2
2014-Dec-14 19:27N 40°36' E 013°49'1 1.2
2014-Dec-14 18:34N 40°35' E 013°49'1 1.3
2014-Dec-14 17:33N 40°35' E 013°51'4 3.7
2014-Dec-14 16:33N 40°37' E 013°55'1 1.1
2014-Dec-14 15:34N 40°36' E 013°56'1 1.1
2014-Dec-14 14:33N 40°35' E 013°57'1 0.9
2014-Dec-14 13:34N 40°35' E 013°58'8 8.0
2014-Dec-14 12:34N 40°38' E 013°48'1010.4
2014-Dec-14 11:33N 40°45' E 013°38'1110.8
2014-Dec-14 10:33N 40°53' E 013°28'1110.7
2014-Dec-14 09:32N 40°59' E 013°16'18110.6
2014-Dec-13 16:29N 43°04' E 010°20'1010.9
2014-Dec-13 15:33N 43°14' E 010°17'1110.7
2014-Dec-13 14:33N 43°24' E 010°14'8 8.3
2014-Dec-13 13:33N 43°32' E 010°17'2 1.8
2014-Dec-13 12:28N 43°34' E 010°18'0 0.0
2014-Dec-13 11:33N 43°34' E 010°18'0 0.0
2014-Dec-13 10:33N 43°34' E 010°18'0 0.0
2014-Dec-13 09:33N 43°34' E 010°18'0 0.0
2014-Dec-13 08:33N 43°34' E 010°18'0 0.0
2014-Dec-13 07:33N 43°34' E 010°18'0 0.0
2014-Dec-13 06:33N 43°34' E 010°18'0 0.0
2014-Dec-13 05:33N 43°34' E 010°18'0 0.0
2014-Dec-13 04:33N 43°34' E 010°18'0 0.0
2014-Dec-13 03:33N 43°34' E 010°18'0 0.0
2014-Dec-13 02:33N 43°34' E 010°18'0 0.0
2014-Dec-13 01:33N 43°34' E 010°18'0 0.0
2014-Dec-13 00:33N 43°34' E 010°18'0 0.0
2014-Dec-12 23:32N 43°34' E 010°18'0 0.0
2014-Dec-12 22:32N 43°34' E 010°18'0 0.0
2014-Dec-12 21:32N 43°34' E 010°18'0 0.0
2014-Dec-12 20:33N 43°34' E 010°18'0 0.0
2014-Dec-12 19:33N 43°34' E 010°18'0 0.0
2014-Dec-12 18:33N 43°34' E 010°18'0 0.0
2014-Dec-12 17:33N 43°34' E 010°18'0 0.0
2014-Dec-12 16:33N 43°34' E 010°18'0 0.0
2014-Dec-12 15:33N 43°34' E 010°18'0 0.0
2014-Dec-12 14:33N 43°34' E 010°18'0 0.0
2014-Dec-12 13:33N 43°34' E 010°18'0 0.0
2014-Dec-12 12:33N 43°34' E 010°18'0 0.0
2014-Dec-12 11:33N 43°34' E 010°18'0 0.0
2014-Dec-12 10:33N 43°34' E 010°18'0 0.0
2014-Dec-12 09:33N 43°34' E 010°18'0 0.0
2014-Dec-12 08:33N 43°34' E 010°18'0 0.0
2014-Dec-12 07:33N 43°34' E 010°18'6 6.1
2014-Dec-12 06:33N 43°30' E 010°13'4 3.9
2014-Dec-12 05:33N 43°31' E 010°08'6 5.6
2014-Dec-12 04:33N 43°34' E 010°01'9 9.3
2014-Dec-12 03:33N 43°39' E 009°50'1110.9
2014-Dec-12 02:33N 43°46' E 009°39'1111.0
2014-Dec-12 01:33N 43°53' E 009°27'1111.1
2014-Dec-12 00:33N 44°01' E 009°16'1111.0
2014-Dec-11 23:33N 44°08' E 009°04'1211.7
2014-Dec-11 22:33N 44°16' E 008°53'1010.2
2014-Dec-11 21:33N 44°24' E 008°43'3 3.1
2014-Dec-11 20:33N 44°25' E 008°47'0 0.0
2014-Dec-11 19:33N 44°25' E 008°47'0 0.0
2014-Dec-11 18:33N 44°25' E 008°47'0 0.0
2014-Dec-11 17:33N 44°25' E 008°47'0 0.0
2014-Dec-11 16:33N 44°25' E 008°47'0 0.0
2014-Dec-11 15:33N 44°25' E 008°47'0 0.0
2014-Dec-11 14:33N 44°25' E 008°47'0 0.0
2014-Dec-11 13:33N 44°25' E 008°47'0 0.0
2014-Dec-11 12:33N 44°25' E 008°47'0 0.0
2014-Dec-11 11:33N 44°25' E 008°47'0 0.3
2014-Dec-11 10:33N 44°25' E 008°47'4 3.6
2014-Dec-11 09:33N 44°22' E 008°44'7 7.3
2014-Dec-11 08:33N 44°16' E 008°50'9 9.4
2014-Dec-11 07:33N 44°08' E 008°56'1211.7
2014-Dec-11 06:33N 43°58' E 009°05'1413.9
2014-Dec-11 05:34N 43°46' E 009°15'1514.5
2014-Dec-11 04:33N 43°33' E 009°24'1414.4
2014-Dec-11 03:33N 43°19' E 009°30'1514.9
2014-Dec-11 02:33N 43°05' E 009°37'24713.7
2014-Dec-10 08:26N 38°58' E 009°30'1213.3
2014-Dec-10 07:33N 39°03' E 009°17'1211.9
2014-Dec-10 06:34N 39°11' E 009°06'2 2.1
2014-Dec-10 05:33N 39°13' E 009°04'0 0.0
2014-Dec-10 04:33N 39°13' E 009°04'0 0.0
2014-Dec-10 03:33N 39°13' E 009°04'0 0.0
2014-Dec-10 02:33N 39°13' E 009°04'0 0.0
2014-Dec-10 01:33N 39°13' E 009°04'0 0.0
2014-Dec-10 00:33N 39°13' E 009°04'0 0.0
2014-Dec-09 23:33N 39°13' E 009°04'0 0.0
2014-Dec-09 22:33N 39°13' E 009°04'0 0.0
2014-Dec-09 21:33N 39°13' E 009°04'0 0.0
2014-Dec-09 20:33N 39°13' E 009°04'0 0.0
2014-Dec-09 19:33N 39°13' E 009°04'0 0.0
2014-Dec-09 18:31N 39°13' E 009°04'0 0.0
2014-Dec-09 17:33N 39°13' E 009°04'0 0.0
2014-Dec-09 16:33N 39°13' E 009°04'0 0.0
2014-Dec-09 15:33N 39°13' E 009°04'0 0.0
2014-Dec-09 14:33N 39°13' E 009°04'0 0.0
2014-Dec-09 13:33N 39°13' E 009°04'0 0.0
2014-Dec-09 12:31N 39°13' E 009°04'2 1.6
2014-Dec-09 11:33N 39°12' E 009°06'4 3.6
2014-Dec-09 10:33N 39°08' E 009°06'1010.1
2014-Dec-09 09:33N 39°02' E 009°17'  
Track history (hours):
 
Tides and Currents Weather Stations Pressure Air Temp Water Temp Dewpoint Dewpoint Depression Visibility Wind Speed Wind Dir Waves Ship Positions

Hansa Limburg

Last reported at 2014-Dec-19 08:33 UTC. Time now 2014-Dec-20 07:20 UTC.
Position N 36°38' E 014°38'.

Length 175.5 m; beam 27.4 m; draft 10.9 m.

Type: Ship (hazmat cat C). MMSI: 636090980.

Date/timePositionNaut miles runAvg speedWind from/ knotsBaromVisibWave heightAir tempDewpointWater temp
2014-Dec-19 08:33N 36°38' E 014°38'1616.3
2014-Dec-19 07:33N 36°44' E 014°19'1615.8
2014-Dec-19 06:33N 36°50' E 014°01'1615.7
2014-Dec-19 05:33N 36°57' E 013°43'24016.0
2014-Dec-18 14:33N 38°60' E 009°22'1515.4
2014-Dec-18 13:33N 39°09' E 009°06'4 4.1
2014-Dec-18 12:32N 39°13' E 009°04'0 0.0
2014-Dec-18 11:34N 39°13' E 009°04'0 0.0
2014-Dec-18 10:33N 39°13' E 009°04'0 0.0
2014-Dec-18 09:31N 39°13' E 009°04'0 0.0
2014-Dec-18 08:33N 39°13' E 009°04'0 0.0
2014-Dec-18 07:33N 39°13' E 009°04'0 0.0
2014-Dec-18 06:33N 39°13' E 009°04'0 0.0
2014-Dec-18 05:33N 39°13' E 009°04'0 0.0
2014-Dec-18 04:33N 39°13' E 009°04'0 0.0
2014-Dec-18 03:33N 39°13' E 009°04'0 0.0
2014-Dec-18 02:33N 39°13' E 009°04'0 0.0
2014-Dec-18 01:33N 39°13' E 009°04'0 0.0
2014-Dec-18 00:34N 39°13' E 009°04'0 0.0
2014-Dec-17 23:33N 39°13' E 009°04'0 0.0
2014-Dec-17 22:33N 39°13' E 009°04'0 0.0
2014-Dec-17 21:33N 39°13' E 009°04'0 0.0
2014-Dec-17 20:27N 39°13' E 009°04'0 0.0
2014-Dec-17 19:33N 39°13' E 009°04'0 0.0
2014-Dec-17 18:33N 39°13' E 009°04'1 0.5
2014-Dec-17 17:33N 39°13' E 009°04'7 7.2
2014-Dec-17 16:33N 39°07' E 009°09'1515.0
2014-Dec-17 15:32N 38°59' E 009°26'1515.2
2014-Dec-17 14:31N 39°02' E 009°45'22016.9
2014-Dec-17 01:29N 40°26' E 014°10'1516.2
2014-Dec-17 00:33N 40°32' E 014°29'1 0.0
2014-Dec-15 22:17N 40°33' E 014°28'6 8.4
2014-Dec-15 21:33N 40°32' E 014°21'8 7.9
2014-Dec-15 20:34N 40°31' E 014°10'9 7.8
2014-Dec-15 19:28N 40°39' E 014°12'8 8.5
2014-Dec-15 18:33N 40°47' E 014°17'4 3.4
2014-Dec-15 17:24N 40°50' E 014°17'0 0.0
2014-Dec-15 16:28N 40°50' E 014°17'0 0.0
2014-Dec-15 15:20N 40°50' E 014°17'0 0.0
2014-Dec-15 13:28N 40°50' E 014°17'0 0.0
2014-Dec-15 12:18N 40°50' E 014°17'0 0.0
2014-Dec-15 11:15N 40°50' E 014°17'0 0.0
2014-Dec-15 10:16N 40°50' E 014°17'0 0.0
2014-Dec-15 09:22N 40°50' E 014°17'0 0.0
2014-Dec-15 08:10N 40°50' E 014°17'0 0.0
2014-Dec-15 07:32N 40°50' E 014°17'0 0.0
2014-Dec-15 06:30N 40°50' E 014°17'26 3.7
2014-Dec-14 23:26N 40°40' E 013°45'1 1.4
2014-Dec-14 22:33N 40°39' E 013°46'1 1.4
2014-Dec-14 21:34N 40°38' E 013°47'1 1.2
2014-Dec-14 20:29N 40°37' E 013°48'1 1.2
2014-Dec-14 19:27N 40°36' E 013°49'1 1.2
2014-Dec-14 18:34N 40°35' E 013°49'1 1.3
2014-Dec-14 17:33N 40°35' E 013°51'4 3.7
2014-Dec-14 16:33N 40°37' E 013°55'1 1.1
2014-Dec-14 15:34N 40°36' E 013°56'1 1.1
2014-Dec-14 14:33N 40°35' E 013°57'1 0.9
2014-Dec-14 13:34N 40°35' E 013°58'8 8.0
2014-Dec-14 12:34N 40°38' E 013°48'1010.4
2014-Dec-14 11:33N 40°45' E 013°38'1110.8
2014-Dec-14 10:33N 40°53' E 013°28'1110.7
2014-Dec-14 09:32N 40°59' E 013°16'18110.6
2014-Dec-13 16:29N 43°04' E 010°20'1010.9
2014-Dec-13 15:33N 43°14' E 010°17'1110.7
2014-Dec-13 14:33N 43°24' E 010°14'8 8.3
2014-Dec-13 13:33N 43°32' E 010°17'2 1.8
2014-Dec-13 12:28N 43°34' E 010°18'0 0.0
2014-Dec-13 11:33N 43°34' E 010°18'0 0.0
2014-Dec-13 10:33N 43°34' E 010°18'0 0.0
2014-Dec-13 09:33N 43°34' E 010°18'0 0.0
2014-Dec-13 08:33N 43°34' E 010°18'0 0.0
2014-Dec-13 07:33N 43°34' E 010°18'0 0.0
2014-Dec-13 06:33N 43°34' E 010°18'0 0.0
2014-Dec-13 05:33N 43°34' E 010°18'0 0.0
2014-Dec-13 04:33N 43°34' E 010°18'0 0.0
2014-Dec-13 03:33N 43°34' E 010°18'0 0.0
2014-Dec-13 02:33N 43°34' E 010°18'0 0.0
2014-Dec-13 01:33N 43°34' E 010°18'0 0.0
2014-Dec-13 00:33N 43°34' E 010°18'0 0.0
2014-Dec-12 23:32N 43°34' E 010°18'0 0.0
2014-Dec-12 22:32N 43°34' E 010°18'0 0.0
2014-Dec-12 21:32N 43°34' E 010°18'0 0.0
2014-Dec-12 20:33N 43°34' E 010°18'0 0.0
2014-Dec-12 19:33N 43°34' E 010°18'0 0.0
2014-Dec-12 18:33N 43°34' E 010°18'0 0.0
2014-Dec-12 17:33N 43°34' E 010°18'0 0.0
2014-Dec-12 16:33N 43°34' E 010°18'0 0.0
2014-Dec-12 15:33N 43°34' E 010°18'0 0.0
2014-Dec-12 14:33N 43°34' E 010°18'0 0.0
2014-Dec-12 13:33N 43°34' E 010°18'0 0.0
2014-Dec-12 12:33N 43°34' E 010°18'0 0.0
2014-Dec-12 11:33N 43°34' E 010°18'0 0.0
2014-Dec-12 10:33N 43°34' E 010°18'0 0.0
2014-Dec-12 09:33N 43°34' E 010°18'0 0.0
2014-Dec-12 08:33N 43°34' E 010°18'0 0.0
2014-Dec-12 07:33N 43°34' E 010°18'6 6.1
2014-Dec-12 06:33N 43°30' E 010°13'4 3.9
2014-Dec-12 05:33N 43°31' E 010°08'6 5.6
2014-Dec-12 04:33N 43°34' E 010°01'9 9.3
2014-Dec-12 03:33N 43°39' E 009°50'1110.9
2014-Dec-12 02:33N 43°46' E 009°39'1111.0
2014-Dec-12 01:33N 43°53' E 009°27'1111.1
2014-Dec-12 00:33N 44°01' E 009°16'1111.0
2014-Dec-11 23:33N 44°08' E 009°04'1211.7
2014-Dec-11 22:33N 44°16' E 008°53'1010.2
2014-Dec-11 21:33N 44°24' E 008°43'3 3.1
2014-Dec-11 20:33N 44°25' E 008°47'0 0.0
2014-Dec-11 19:33N 44°25' E 008°47'0 0.0
2014-Dec-11 18:33N 44°25' E 008°47'0 0.0
2014-Dec-11 17:33N 44°25' E 008°47'0 0.0
2014-Dec-11 16:33N 44°25' E 008°47'0 0.0
2014-Dec-11 15:33N 44°25' E 008°47'0 0.0
2014-Dec-11 14:33N 44°25' E 008°47'0 0.0
2014-Dec-11 13:33N 44°25' E 008°47'0 0.0
2014-Dec-11 12:33N 44°25' E 008°47'0 0.0
2014-Dec-11 11:33N 44°25' E 008°47'0 0.3
2014-Dec-11 10:33N 44°25' E 008°47'4 3.6
2014-Dec-11 09:33N 44°22' E 008°44'7 7.3
2014-Dec-11 08:33N 44°16' E 008°50'9 9.4
2014-Dec-11 07:33N 44°08' E 008°56'1211.7
2014-Dec-11 06:33N 43°58' E 009°05'1413.9
2014-Dec-11 05:34N 43°46' E 009°15'1514.5
2014-Dec-11 04:33N 43°33' E 009°24'1414.4
2014-Dec-11 03:33N 43°19' E 009°30'1514.9
2014-Dec-11 02:33N 43°05' E 009°37'24713.7
2014-Dec-10 08:26N 38°58' E 009°30'1213.3
2014-Dec-10 07:33N 39°03' E 009°17'1211.9
2014-Dec-10 06:34N 39°11' E 009°06'2 2.1
2014-Dec-10 05:33N 39°13' E 009°04'0 0.0
2014-Dec-10 04:33N 39°13' E 009°04'0 0.0
2014-Dec-10 03:33N 39°13' E 009°04'0 0.0
2014-Dec-10 02:33N 39°13' E 009°04'0 0.0
2014-Dec-10 01:33N 39°13' E 009°04'0 0.0
2014-Dec-10 00:33N 39°13' E 009°04'0 0.0
2014-Dec-09 23:33N 39°13' E 009°04'0 0.0
2014-Dec-09 22:33N 39°13' E 009°04'0 0.0
2014-Dec-09 21:33N 39°13' E 009°04'0 0.0
2014-Dec-09 20:33N 39°13' E 009°04'0 0.0
2014-Dec-09 19:33N 39°13' E 009°04'0 0.0
2014-Dec-09 18:31N 39°13' E 009°04'0 0.0
2014-Dec-09 17:33N 39°13' E 009°04'0 0.0
2014-Dec-09 16:33N 39°13' E 009°04'0 0.0
2014-Dec-09 15:33N 39°13' E 009°04'0 0.0
2014-Dec-09 14:33N 39°13' E 009°04'0 0.0
2014-Dec-09 13:33N 39°13' E 009°04'0 0.0
2014-Dec-09 12:31N 39°13' E 009°04'2 1.6
2014-Dec-09 11:33N 39°12' E 009°06'4 3.6
2014-Dec-09 10:33N 39°08' E 009°06'1010.1
2014-Dec-09 09:33N 39°02' E 009°17'  

Dump ship's entire track history